sensor_id;sensor_type;location;lat;lon;timestamp;pressure;altitude;pressure_sealevel;temperature;humidity
82379;BME280;72008;48.140;11.614;2024-02-23T00:00:39;93603.56;;;8.57;82.71
82379;BME280;72008;48.140;11.614;2024-02-23T00:01:39;93603.09;;;8.48;82.95
82379;BME280;72008;48.140;11.614;2024-02-23T00:02:40;93615.47;;;8.38;82.35
82379;BME280;72008;48.140;11.614;2024-02-23T00:03:40;93604.06;;;8.29;83.44
82379;BME280;72008;48.140;11.614;2024-02-23T00:04:41;93598.00;;;8.43;83.39
82379;BME280;72008;48.140;11.614;2024-02-23T00:05:41;93604.31;;;8.54;84.92
82379;BME280;72008;48.140;11.614;2024-02-23T00:06:42;93603.53;;;8.54;83.40
82379;BME280;72008;48.140;11.614;2024-02-23T00:07:42;93600.09;;;8.60;84.78
82379;BME280;72008;48.140;11.614;2024-02-23T00:08:42;93611.09;;;8.71;84.45
82379;BME280;72008;48.140;11.614;2024-02-23T00:09:43;93608.47;;;8.82;84.81
82379;BME280;72008;48.140;11.614;2024-02-23T00:10:43;93608.63;;;9.00;85.33
82379;BME280;72008;48.140;11.614;2024-02-23T00:11:44;93615.59;;;8.94;82.90
82379;BME280;72008;48.140;11.614;2024-02-23T00:12:44;93610.78;;;8.80;82.94
82379;BME280;72008;48.140;11.614;2024-02-23T00:13:44;93604.63;;;8.90;84.94
82379;BME280;72008;48.140;11.614;2024-02-23T00:14:45;93601.84;;;8.83;84.00
82379;BME280;72008;48.140;11.614;2024-02-23T00:15:45;93624.13;;;8.88;82.28
82379;BME280;72008;48.140;11.614;2024-02-23T00:16:46;93598.09;;;8.54;82.66
82379;BME280;72008;48.140;11.614;2024-02-23T00:17:46;93600.75;;;8.43;81.78
82379;BME280;72008;48.140;11.614;2024-02-23T00:18:47;93607.34;;;8.42;82.94
82379;BME280;72008;48.140;11.614;2024-02-23T00:19:47;93606.00;;;8.66;85.23
82379;BME280;72008;48.140;11.614;2024-02-23T00:20:48;93607.59;;;8.71;83.49
82379;BME280;72008;48.140;11.614;2024-02-23T00:21:48;93609.94;;;8.72;82.97
82379;BME280;72008;48.140;11.614;2024-02-23T00:22:48;93614.72;;;8.82;85.13
82379;BME280;72008;48.140;11.614;2024-02-23T00:23:49;93622.06;;;8.78;82.45
82379;BME280;72008;48.140;11.614;2024-02-23T00:24:49;93621.16;;;8.63;81.93
82379;BME280;72008;48.140;11.614;2024-02-23T00:25:50;93609.53;;;8.29;83.43
82379;BME280;72008;48.140;11.614;2024-02-23T00:26:50;93627.41;;;8.27;82.55
82379;BME280;72008;48.140;11.614;2024-02-23T00:27:50;93616.84;;;8.21;83.36
82379;BME280;72008;48.140;11.614;2024-02-23T00:28:51;93613.34;;;8.25;83.02
82379;BME280;72008;48.140;11.614;2024-02-23T00:29:51;93611.03;;;8.23;83.96
82379;BME280;72008;48.140;11.614;2024-02-23T00:31:09;93608.38;;;8.34;83.73
82379;BME280;72008;48.140;11.614;2024-02-23T00:32:09;93609.44;;;8.22;81.81
82379;BME280;72008;48.140;11.614;2024-02-23T00:33:09;93617.94;;;8.13;83.99
82379;BME280;72008;48.140;11.614;2024-02-23T00:34:11;93613.72;;;8.19;83.43
82379;BME280;72008;48.140;11.614;2024-02-23T00:35:11;93629.13;;;8.42;83.86
82379;BME280;72008;48.140;11.614;2024-02-23T00:36:12;93626.88;;;8.14;81.49
82379;BME280;72008;48.140;11.614;2024-02-23T00:37:12;93627.78;;;7.91;80.64
82379;BME280;72008;48.140;11.614;2024-02-23T00:38:12;93613.09;;;8.00;82.32
82379;BME280;72008;48.140;11.614;2024-02-23T00:39:13;93614.69;;;8.04;81.94
82379;BME280;72008;48.140;11.614;2024-02-23T00:40:13;93626.44;;;8.08;81.76
82379;BME280;72008;48.140;11.614;2024-02-23T00:41:14;93614.47;;;8.16;84.12
82379;BME280;72008;48.140;11.614;2024-02-23T00:42:14;93619.00;;;8.39;83.23
82379;BME280;72008;48.140;11.614;2024-02-23T00:43:15;93609.19;;;8.34;82.99
82379;BME280;72008;48.140;11.614;2024-02-23T00:44:15;93610.34;;;8.33;81.61
82379;BME280;72008;48.140;11.614;2024-02-23T00:45:15;93626.69;;;8.33;81.86
82379;BME280;72008;48.140;11.614;2024-02-23T00:46:16;93617.97;;;8.17;81.17
82379;BME280;72008;48.140;11.614;2024-02-23T00:47:16;93620.94;;;8.05;82.48
82379;BME280;72008;48.140;11.614;2024-02-23T00:48:17;93622.09;;;8.04;80.98
82379;BME280;72008;48.140;11.614;2024-02-23T00:49:17;93616.50;;;8.27;83.65
82379;BME280;72008;48.140;11.614;2024-02-23T00:50:19;93621.78;;;8.12;81.84
82379;BME280;72008;48.140;11.614;2024-02-23T00:51:19;93631.88;;;8.08;82.54
82379;BME280;72008;48.140;11.614;2024-02-23T00:52:20;93629.91;;;8.05;81.30
82379;BME280;72008;48.140;11.614;2024-02-23T00:53:20;93634.22;;;8.10;81.69
82379;BME280;72008;48.140;11.614;2024-02-23T00:54:21;93622.53;;;8.09;81.26
82379;BME280;72008;48.140;11.614;2024-02-23T00:55:21;93635.91;;;8.21;83.45
82379;BME280;72008;48.140;11.614;2024-02-23T00:56:22;93627.09;;;8.35;84.78
82379;BME280;72008;48.140;11.614;2024-02-23T00:57:22;93635.34;;;8.39;82.92
82379;BME280;72008;48.140;11.614;2024-02-23T00:58:23;93637.13;;;8.28;83.51
82379;BME280;72008;48.140;11.614;2024-02-23T00:59:23;93634.31;;;8.17;80.41
82379;BME280;72008;48.140;11.614;2024-02-23T01:00:24;93628.44;;;8.15;81.78
82379;BME280;72008;48.140;11.614;2024-02-23T01:01:25;93634.72;;;8.19;82.49
82379;BME280;72008;48.140;11.614;2024-02-23T01:02:25;93635.53;;;8.19;81.52
82379;BME280;72008;48.140;11.614;2024-02-23T01:03:26;93636.81;;;8.33;83.31
82379;BME280;72008;48.140;11.614;2024-02-23T01:04:26;93638.44;;;8.37;83.61
82379;BME280;72008;48.140;11.614;2024-02-23T01:05:26;93644.66;;;8.38;81.91
82379;BME280;72008;48.140;11.614;2024-02-23T01:06:27;93646.84;;;8.25;81.74
82379;BME280;72008;48.140;11.614;2024-02-23T01:07:27;93643.13;;;8.07;81.42
82379;BME280;72008;48.140;11.614;2024-02-23T01:08:28;93642.84;;;8.15;83.04
82379;BME280;72008;48.140;11.614;2024-02-23T01:09:28;93638.84;;;8.06;82.44
82379;BME280;72008;48.140;11.614;2024-02-23T01:10:28;93648.63;;;8.10;82.92
82379;BME280;72008;48.140;11.614;2024-02-23T01:11:29;93641.66;;;8.13;83.17
82379;BME280;72008;48.140;11.614;2024-02-23T01:12:29;93648.31;;;8.15;82.28
82379;BME280;72008;48.140;11.614;2024-02-23T01:13:30;93649.94;;;8.20;81.58
82379;BME280;72008;48.140;11.614;2024-02-23T01:14:30;93647.94;;;8.17;80.60
82379;BME280;72008;48.140;11.614;2024-02-23T01:15:30;93643.59;;;8.12;80.83
82379;BME280;72008;48.140;11.614;2024-02-23T01:16:31;93647.59;;;8.22;80.74
82379;BME280;72008;48.140;11.614;2024-02-23T01:17:32;93661.63;;;8.24;80.93
82379;BME280;72008;48.140;11.614;2024-02-23T01:18:32;93673.00;;;8.30;82.54
82379;BME280;72008;48.140;11.614;2024-02-23T01:19:32;93655.38;;;8.20;81.60
82379;BME280;72008;48.140;11.614;2024-02-23T01:20:56;93658.38;;;8.11;80.56
82379;BME280;72008;48.140;11.614;2024-02-23T01:21:56;93669.94;;;8.01;81.39
82379;BME280;72008;48.140;11.614;2024-02-23T01:22:57;93656.09;;;8.13;81.26
82379;BME280;72008;48.140;11.614;2024-02-23T01:23:57;93663.09;;;8.14;80.42
82379;BME280;72008;48.140;11.614;2024-02-23T01:24:58;93668.97;;;8.16;83.20
82379;BME280;72008;48.140;11.614;2024-02-23T01:25:58;93666.19;;;8.13;80.37
82379;BME280;72008;48.140;11.614;2024-02-23T01:26:58;93670.50;;;8.14;81.03
82379;BME280;72008;48.140;11.614;2024-02-23T01:27:59;93671.41;;;7.95;81.63
82379;BME280;72008;48.140;11.614;2024-02-23T01:28:59;93682.66;;;7.90;81.57
82379;BME280;72008;48.140;11.614;2024-02-23T01:30:00;93681.25;;;8.03;82.00
82379;BME280;72008;48.140;11.614;2024-02-23T01:31:00;93675.31;;;7.94;81.56
82379;BME280;72008;48.140;11.614;2024-02-23T01:32:01;93677.47;;;8.11;82.79
82379;BME280;72008;48.140;11.614;2024-02-23T01:33:01;93675.97;;;8.17;81.96
82379;BME280;72008;48.140;11.614;2024-02-23T01:34:02;93686.69;;;8.37;82.10
82379;BME280;72008;48.140;11.614;2024-02-23T01:35:14;93672.50;;;8.20;80.33
82379;BME280;72008;48.140;11.614;2024-02-23T01:36:16;93682.63;;;8.20;82.08
82379;BME280;72008;48.140;11.614;2024-02-23T01:37:17;93684.59;;;8.23;82.21
82379;BME280;72008;48.140;11.614;2024-02-23T01:38:17;93684.97;;;8.21;79.41
82379;BME280;72008;48.140;11.614;2024-02-23T01:39:17;93691.25;;;8.26;80.20
82379;BME280;72008;48.140;11.614;2024-02-23T01:40:18;93691.88;;;8.12;81.48
82379;BME280;72008;48.140;11.614;2024-02-23T01:41:37;93692.97;;;8.07;80.57
82379;BME280;72008;48.140;11.614;2024-02-23T01:42:37;93689.59;;;8.17;83.94
82379;BME280;72008;48.140;11.614;2024-02-23T01:43:38;93683.34;;;8.13;82.63
82379;BME280;72008;48.140;11.614;2024-02-23T01:44:38;93684.91;;;8.14;81.39
82379;BME280;72008;48.140;11.614;2024-02-23T01:45:39;93687.78;;;8.29;83.94
82379;BME280;72008;48.140;11.614;2024-02-23T01:46:39;93684.41;;;8.05;79.44
82379;BME280;72008;48.140;11.614;2024-02-23T01:47:40;93690.16;;;8.00;81.62
82379;BME280;72008;48.140;11.614;2024-02-23T01:48:40;93686.16;;;7.90;78.64
82379;BME280;72008;48.140;11.614;2024-02-23T01:49:41;93683.00;;;7.88;79.94
82379;BME280;72008;48.140;11.614;2024-02-23T01:50:43;93681.44;;;7.87;81.65
82379;BME280;72008;48.140;11.614;2024-02-23T01:51:44;93688.38;;;7.81;80.76
82379;BME280;72008;48.140;11.614;2024-02-23T01:52:44;93678.78;;;7.91;80.39
82379;BME280;72008;48.140;11.614;2024-02-23T01:53:45;93682.00;;;8.00;80.54
82379;BME280;72008;48.140;11.614;2024-02-23T01:54:45;93675.03;;;8.03;81.46
82379;BME280;72008;48.140;11.614;2024-02-23T01:55:47;93672.78;;;8.12;82.04
82379;BME280;72008;48.140;11.614;2024-02-23T01:56:49;93689.59;;;8.17;81.81
82379;BME280;72008;48.140;11.614;2024-02-23T01:57:50;93685.41;;;7.93;78.15
82379;BME280;72008;48.140;11.614;2024-02-23T01:58:51;93686.28;;;8.01;80.13
82379;BME280;72008;48.140;11.614;2024-02-23T01:59:53;93689.19;;;8.15;83.59
82379;BME280;72008;48.140;11.614;2024-02-23T02:00:54;93685.72;;;8.18;80.25
82379;BME280;72008;48.140;11.614;2024-02-23T02:01:54;93682.66;;;8.24;81.48
82379;BME280;72008;48.140;11.614;2024-02-23T02:02:54;93689.09;;;8.08;81.18
82379;BME280;72008;48.140;11.614;2024-02-23T02:03:55;93680.75;;;7.94;79.63
82379;BME280;72008;48.140;11.614;2024-02-23T02:04:56;93681.69;;;8.05;80.57
82379;BME280;72008;48.140;11.614;2024-02-23T02:05:57;93688.53;;;7.95;78.90
82379;BME280;72008;48.140;11.614;2024-02-23T02:06:59;93687.75;;;7.95;81.70
82379;BME280;72008;48.140;11.614;2024-02-23T02:08:00;93689.00;;;8.01;79.54
82379;BME280;72008;48.140;11.614;2024-02-23T02:09:01;93688.47;;;7.88;80.56
82379;BME280;72008;48.140;11.614;2024-02-23T02:10:02;93687.19;;;8.12;81.56
82379;BME280;72008;48.140;11.614;2024-02-23T02:11:03;93690.84;;;8.24;81.56
82379;BME280;72008;48.140;11.614;2024-02-23T02:12:03;93682.44;;;8.06;79.36
82379;BME280;72008;48.140;11.614;2024-02-23T02:13:05;93679.50;;;7.88;79.51
82379;BME280;72008;48.140;11.614;2024-02-23T02:14:05;93683.22;;;8.06;81.26
82379;BME280;72008;48.140;11.614;2024-02-23T02:15:06;93678.91;;;8.02;81.91
82379;BME280;72008;48.140;11.614;2024-02-23T02:16:06;93687.09;;;8.02;79.63
82379;BME280;72008;48.140;11.614;2024-02-23T02:17:07;93687.03;;;7.98;82.21
82379;BME280;72008;48.140;11.614;2024-02-23T02:18:07;93684.06;;;8.10;81.76
82379;BME280;72008;48.140;11.614;2024-02-23T02:19:08;93681.38;;;8.14;81.80
82379;BME280;72008;48.140;11.614;2024-02-23T02:20:12;93688.78;;;8.13;80.39
82379;BME280;72008;48.140;11.614;2024-02-23T02:21:13;93686.09;;;8.17;80.11
82379;BME280;72008;48.140;11.614;2024-02-23T02:22:13;93695.78;;;8.14;79.51
82379;BME280;72008;48.140;11.614;2024-02-23T02:23:14;93696.16;;;8.13;81.23
82379;BME280;72008;48.140;11.614;2024-02-23T02:24:14;93706.59;;;8.07;80.31
82379;BME280;72008;48.140;11.614;2024-02-23T02:25:14;93702.03;;;8.15;81.84
82379;BME280;72008;48.140;11.614;2024-02-23T02:26:15;93701.84;;;8.01;79.88
82379;BME280;72008;48.140;11.614;2024-02-23T02:27:15;93706.59;;;8.07;80.85
82379;BME280;72008;48.140;11.614;2024-02-23T02:28:16;93690.88;;;7.93;79.79
82379;BME280;72008;48.140;11.614;2024-02-23T02:29:16;93700.53;;;7.87;80.00
82379;BME280;72008;48.140;11.614;2024-02-23T02:30:16;93709.16;;;7.93;80.69
82379;BME280;72008;48.140;11.614;2024-02-23T02:31:17;93703.19;;;7.84;78.43
82379;BME280;72008;48.140;11.614;2024-02-23T02:32:17;93711.88;;;7.93;79.29
82379;BME280;72008;48.140;11.614;2024-02-23T02:33:18;93713.75;;;7.89;82.03
82379;BME280;72008;48.140;11.614;2024-02-23T02:34:18;93708.00;;;7.94;80.46
82379;BME280;72008;48.140;11.614;2024-02-23T02:35:19;93712.31;;;7.98;80.10
82379;BME280;72008;48.140;11.614;2024-02-23T02:36:19;93714.41;;;7.79;78.83
82379;BME280;72008;48.140;11.614;2024-02-23T02:37:20;93710.72;;;7.64;78.15
82379;BME280;72008;48.140;11.614;2024-02-23T02:38:20;93721.53;;;7.87;81.40
82379;BME280;72008;48.140;11.614;2024-02-23T02:39:21;93718.81;;;7.87;80.33
82379;BME280;72008;48.140;11.614;2024-02-23T02:40:21;93714.06;;;7.84;80.23
82379;BME280;72008;48.140;11.614;2024-02-23T02:41:24;93724.56;;;7.82;78.51
82379;BME280;72008;48.140;11.614;2024-02-23T02:42:28;93719.91;;;7.82;79.10
82379;BME280;72008;48.140;11.614;2024-02-23T02:43:29;93723.88;;;7.88;80.51
82379;BME280;72008;48.140;11.614;2024-02-23T02:44:29;93719.13;;;7.82;80.73
82379;BME280;72008;48.140;11.614;2024-02-23T02:45:30;93719.75;;;7.71;80.22
82379;BME280;72008;48.140;11.614;2024-02-23T02:46:30;93716.25;;;7.71;80.78
82379;BME280;72008;48.140;11.614;2024-02-23T02:47:30;93722.00;;;7.66;78.59
82379;BME280;72008;48.140;11.614;2024-02-23T02:48:31;93724.13;;;7.80;80.94
82379;BME280;72008;48.140;11.614;2024-02-23T02:49:31;93728.50;;;7.84;81.32
82379;BME280;72008;48.140;11.614;2024-02-23T02:50:32;93720.50;;;7.98;80.64
82379;BME280;72008;48.140;11.614;2024-02-23T02:51:32;93724.41;;;8.01;81.53
82379;BME280;72008;48.140;11.614;2024-02-23T02:52:32;93725.50;;;7.93;79.96
82379;BME280;72008;48.140;11.614;2024-02-23T02:53:33;93718.09;;;7.93;82.77
82379;BME280;72008;48.140;11.614;2024-02-23T02:54:33;93728.47;;;8.11;80.42
82379;BME280;72008;48.140;11.614;2024-02-23T02:55:34;93719.94;;;8.16;81.58
82379;BME280;72008;48.140;11.614;2024-02-23T02:56:34;93729.34;;;8.22;82.21
82379;BME280;72008;48.140;11.614;2024-02-23T02:57:34;93726.31;;;8.27;83.79
82379;BME280;72008;48.140;11.614;2024-02-23T02:58:35;93726.59;;;8.18;79.62
82379;BME280;72008;48.140;11.614;2024-02-23T02:59:35;93729.97;;;8.38;83.52
82379;BME280;72008;48.140;11.614;2024-02-23T03:00:36;93730.16;;;8.23;80.52
82379;BME280;72008;48.140;11.614;2024-02-23T03:01:36;93724.66;;;8.19;79.75
82379;BME280;72008;48.140;11.614;2024-02-23T03:02:37;93721.50;;;8.13;80.76
82379;BME280;72008;48.140;11.614;2024-02-23T03:03:37;93729.13;;;8.04;80.32
82379;BME280;72008;48.140;11.614;2024-02-23T03:04:38;93720.59;;;8.06;81.66
82379;BME280;72008;48.140;11.614;2024-02-23T03:05:38;93722.03;;;7.96;81.71
82379;BME280;72008;48.140;11.614;2024-02-23T03:06:39;93729.97;;;8.08;81.63
82379;BME280;72008;48.140;11.614;2024-02-23T03:07:39;93726.56;;;8.15;84.75
82379;BME280;72008;48.140;11.614;2024-02-23T03:08:42;93718.50;;;7.95;80.67
82379;BME280;72008;48.140;11.614;2024-02-23T03:09:43;93723.69;;;8.04;81.45
82379;BME280;72008;48.140;11.614;2024-02-23T03:11:03;93715.97;;;8.10;80.67
82379;BME280;72008;48.140;11.614;2024-02-23T03:12:04;93712.66;;;7.93;81.72
82379;BME280;72008;48.140;11.614;2024-02-23T03:13:04;93724.88;;;7.77;80.29
82379;BME280;72008;48.140;11.614;2024-02-23T03:14:04;93724.31;;;7.90;81.51
82379;BME280;72008;48.140;11.614;2024-02-23T03:15:05;93727.16;;;8.01;82.34
82379;BME280;72008;48.140;11.614;2024-02-23T03:16:05;93718.81;;;7.87;80.91
82379;BME280;72008;48.140;11.614;2024-02-23T03:17:09;93720.50;;;7.98;82.21
82379;BME280;72008;48.140;11.614;2024-02-23T03:18:09;93721.31;;;7.99;80.68
82379;BME280;72008;48.140;11.614;2024-02-23T03:19:09;93719.53;;;8.14;81.61
82379;BME280;72008;48.140;11.614;2024-02-23T03:20:11;93728.78;;;8.06;80.38
82379;BME280;72008;48.140;11.614;2024-02-23T03:21:11;93723.59;;;7.97;80.39
82379;BME280;72008;48.140;11.614;2024-02-23T03:22:12;93712.38;;;7.72;79.49
82379;BME280;72008;48.140;11.614;2024-02-23T03:23:12;93718.66;;;7.76;81.46
82379;BME280;72008;48.140;11.614;2024-02-23T03:24:12;93731.28;;;7.61;79.15
82379;BME280;72008;48.140;11.614;2024-02-23T03:25:13;93732.88;;;7.39;79.98
82379;BME280;72008;48.140;11.614;2024-02-23T03:26:13;93737.00;;;7.52;81.07
82379;BME280;72008;48.140;11.614;2024-02-23T03:27:14;93727.19;;;7.48;81.49
82379;BME280;72008;48.140;11.614;2024-02-23T03:28:14;93732.63;;;7.48;81.01
82379;BME280;72008;48.140;11.614;2024-02-23T03:29:14;93726.19;;;7.60;80.16
82379;BME280;72008;48.140;11.614;2024-02-23T03:30:15;93729.28;;;7.58;80.58
82379;BME280;72008;48.140;11.614;2024-02-23T03:31:15;93727.81;;;7.64;82.67
82379;BME280;72008;48.140;11.614;2024-02-23T03:32:16;93729.50;;;7.72;83.09
82379;BME280;72008;48.140;11.614;2024-02-23T03:33:16;93728.59;;;7.65;79.58
82379;BME280;72008;48.140;11.614;2024-02-23T03:34:17;93735.88;;;7.57;80.69
82379;BME280;72008;48.140;11.614;2024-02-23T03:35:17;93721.25;;;7.42;79.25
82379;BME280;72008;48.140;11.614;2024-02-23T03:36:18;93718.97;;;7.44;80.44
82379;BME280;72008;48.140;11.614;2024-02-23T03:37:18;93727.59;;;7.50;81.66
82379;BME280;72008;48.140;11.614;2024-02-23T03:38:18;93719.22;;;7.62;80.78
82379;BME280;72008;48.140;11.614;2024-02-23T03:39:19;93717.03;;;7.71;82.26
82379;BME280;72008;48.140;11.614;2024-02-23T03:40:19;93718.59;;;7.72;80.40
82379;BME280;72008;48.140;11.614;2024-02-23T03:41:20;93721.81;;;7.78;79.41
82379;BME280;72008;48.140;11.614;2024-02-23T03:42:20;93724.72;;;7.66;80.85
82379;BME280;72008;48.140;11.614;2024-02-23T03:43:21;93713.38;;;7.60;80.27
82379;BME280;72008;48.140;11.614;2024-02-23T03:44:21;93725.38;;;7.56;81.33
82379;BME280;72008;48.140;11.614;2024-02-23T03:45:22;93725.06;;;7.34;79.13
82379;BME280;72008;48.140;11.614;2024-02-23T03:46:22;93732.25;;;7.23;79.97
82379;BME280;72008;48.140;11.614;2024-02-23T03:47:22;93734.78;;;7.35;81.20
82379;BME280;72008;48.140;11.614;2024-02-23T03:48:23;93731.28;;;7.35;80.77
82379;BME280;72008;48.140;11.614;2024-02-23T03:49:23;93727.91;;;7.45;81.08
82379;BME280;72008;48.140;11.614;2024-02-23T03:50:29;93730.81;;;7.56;82.78
82379;BME280;72008;48.140;11.614;2024-02-23T03:51:30;93726.88;;;7.53;80.71
82379;BME280;72008;48.140;11.614;2024-02-23T03:52:30;93732.84;;;7.36;79.57
82379;BME280;72008;48.140;11.614;2024-02-23T03:53:31;93728.28;;;7.43;80.02
82379;BME280;72008;48.140;11.614;2024-02-23T03:54:31;93720.44;;;7.38;80.19
82379;BME280;72008;48.140;11.614;2024-02-23T03:55:32;93721.38;;;7.49;79.03
82379;BME280;72008;48.140;11.614;2024-02-23T03:56:39;93728.81;;;7.52;79.16
82379;BME280;72008;48.140;11.614;2024-02-23T03:57:40;93743.13;;;7.46;80.72
82379;BME280;72008;48.140;11.614;2024-02-23T03:58:40;93736.09;;;7.45;79.52
82379;BME280;72008;48.140;11.614;2024-02-23T03:59:53;93744.69;;;7.47;82.17
82379;BME280;72008;48.140;11.614;2024-02-23T04:00:53;93739.50;;;7.65;83.12
82379;BME280;72008;48.140;11.614;2024-02-23T04:01:54;93738.50;;;7.77;83.13
82379;BME280;72008;48.140;11.614;2024-02-23T04:02:54;93744.63;;;7.70;81.05
82379;BME280;72008;48.140;11.614;2024-02-23T04:03:55;93734.88;;;7.69;81.76
82379;BME280;72008;48.140;11.614;2024-02-23T04:04:55;93745.31;;;7.63;79.86
82379;BME280;72008;48.140;11.614;2024-02-23T04:05:56;93740.19;;;7.58;81.03
82379;BME280;72008;48.140;11.614;2024-02-23T04:06:56;93738.03;;;7.71;80.64
82379;BME280;72008;48.140;11.614;2024-02-23T04:07:56;93737.56;;;7.65;82.33
82379;BME280;72008;48.140;11.614;2024-02-23T04:08:57;93744.25;;;7.71;82.14
82379;BME280;72008;48.140;11.614;2024-02-23T04:09:57;93743.94;;;7.77;82.19
82379;BME280;72008;48.140;11.614;2024-02-23T04:10:58;93738.75;;;7.68;80.62
82379;BME280;72008;48.140;11.614;2024-02-23T04:11:58;93746.19;;;7.71;80.34
82379;BME280;72008;48.140;11.614;2024-02-23T04:13:00;93749.03;;;7.78;82.06
82379;BME280;72008;48.140;11.614;2024-02-23T04:14:01;93742.38;;;7.75;80.23
82379;BME280;72008;48.140;11.614;2024-02-23T04:15:01;93751.16;;;7.65;80.78
82379;BME280;72008;48.140;11.614;2024-02-23T04:16:02;93749.66;;;7.68;82.35
82379;BME280;72008;48.140;11.614;2024-02-23T04:17:03;93747.44;;;7.77;81.20
82379;BME280;72008;48.140;11.614;2024-02-23T04:18:04;93741.13;;;7.69;80.91
82379;BME280;72008;48.140;11.614;2024-02-23T04:19:04;93741.75;;;7.86;81.01
82379;BME280;72008;48.140;11.614;2024-02-23T04:20:07;93753.16;;;7.95;80.23
82379;BME280;72008;48.140;11.614;2024-02-23T04:21:07;93751.53;;;7.90;80.60
82379;BME280;72008;48.140;11.614;2024-02-23T04:22:09;93748.44;;;7.92;81.18
82379;BME280;72008;48.140;11.614;2024-02-23T04:23:09;93746.06;;;7.87;81.67
82379;BME280;72008;48.140;11.614;2024-02-23T04:24:10;93743.41;;;7.94;83.62
82379;BME280;72008;48.140;11.614;2024-02-23T04:25:10;93744.97;;;7.95;81.77
82379;BME280;72008;48.140;11.614;2024-02-23T04:26:11;93751.31;;;8.03;81.07
82379;BME280;72008;48.140;11.614;2024-02-23T04:27:11;93744.94;;;7.91;80.77
82379;BME280;72008;48.140;11.614;2024-02-23T04:28:12;93744.47;;;7.86;84.13
82379;BME280;72008;48.140;11.614;2024-02-23T04:29:12;93738.47;;;8.03;83.98
82379;BME280;72008;48.140;11.614;2024-02-23T04:30:13;93742.97;;;7.92;80.76
82379;BME280;72008;48.140;11.614;2024-02-23T04:31:13;93746.06;;;7.87;81.34
82379;BME280;72008;48.140;11.614;2024-02-23T04:32:13;93753.00;;;7.84;80.49
82379;BME280;72008;48.140;11.614;2024-02-23T04:33:14;93749.94;;;7.89;82.30
82379;BME280;72008;48.140;11.614;2024-02-23T04:34:15;93748.22;;;7.78;80.33
82379;BME280;72008;48.140;11.614;2024-02-23T04:35:15;93745.97;;;7.83;82.61
82379;BME280;72008;48.140;11.614;2024-02-23T04:36:19;93748.19;;;7.74;81.44
82379;BME280;72008;48.140;11.614;2024-02-23T04:37:20;93749.81;;;7.79;82.67
82379;BME280;72008;48.140;11.614;2024-02-23T04:38:20;93755.63;;;7.77;82.63
82379;BME280;72008;48.140;11.614;2024-02-23T04:39:21;93757.56;;;7.77;82.34
82379;BME280;72008;48.140;11.614;2024-02-23T04:40:21;93751.94;;;7.66;82.10
82379;BME280;72008;48.140;11.614;2024-02-23T04:41:22;93761.28;;;7.65;80.63
82379;BME280;72008;48.140;11.614;2024-02-23T04:42:22;93757.34;;;7.62;79.70
82379;BME280;72008;48.140;11.614;2024-02-23T04:43:24;93757.78;;;7.64;82.44
82379;BME280;72008;48.140;11.614;2024-02-23T04:44:24;93755.22;;;7.75;82.15
82379;BME280;72008;48.140;11.614;2024-02-23T04:45:25;93750.16;;;7.77;84.57
82379;BME280;72008;48.140;11.614;2024-02-23T04:46:28;93744.38;;;7.79;81.30
82379;BME280;72008;48.140;11.614;2024-02-23T04:47:28;93757.47;;;7.69;80.96
82379;BME280;72008;48.140;11.614;2024-02-23T04:48:29;93751.81;;;7.55;80.75
82379;BME280;72008;48.140;11.614;2024-02-23T04:49:30;93761.78;;;7.47;79.42
82379;BME280;72008;48.140;11.614;2024-02-23T04:50:30;93763.97;;;7.61;82.52
82379;BME280;72008;48.140;11.614;2024-02-23T04:51:31;93766.47;;;7.73;82.63
82379;BME280;72008;48.140;11.614;2024-02-23T04:52:31;93759.94;;;7.78;82.26
82379;BME280;72008;48.140;11.614;2024-02-23T04:53:31;93764.75;;;7.62;78.71
82379;BME280;72008;48.140;11.614;2024-02-23T04:54:32;93764.91;;;7.46;80.45
82379;BME280;72008;48.140;11.614;2024-02-23T04:55:32;93765.91;;;7.61;81.24
82379;BME280;72008;48.140;11.614;2024-02-23T04:56:33;93769.72;;;7.56;79.82
82379;BME280;72008;48.140;11.614;2024-02-23T04:57:33;93765.81;;;7.57;83.43
82379;BME280;72008;48.140;11.614;2024-02-23T04:58:33;93761.78;;;7.47;81.64
82379;BME280;72008;48.140;11.614;2024-02-23T04:59:34;93765.50;;;7.36;80.28
82379;BME280;72008;48.140;11.614;2024-02-23T05:00:34;93760.78;;;7.33;79.06
82379;BME280;72008;48.140;11.614;2024-02-23T05:01:36;93768.75;;;7.45;81.88
82379;BME280;72008;48.140;11.614;2024-02-23T05:02:36;93774.81;;;7.58;81.40
82379;BME280;72008;48.140;11.614;2024-02-23T05:03:37;93764.91;;;7.46;80.82
82379;BME280;72008;48.140;11.614;2024-02-23T05:04:37;93770.06;;;7.28;80.13
82379;BME280;72008;48.140;11.614;2024-02-23T05:05:38;93750.66;;;7.33;80.35
82379;BME280;72008;48.140;11.614;2024-02-23T05:06:38;93752.94;;;7.54;82.88
82379;BME280;72008;48.140;11.614;2024-02-23T05:07:38;93738.72;;;7.64;80.03
82379;BME280;72008;48.140;11.614;2024-02-23T05:08:39;93743.63;;;7.55;80.45
82379;BME280;72008;48.140;11.614;2024-02-23T05:09:39;93751.84;;;7.32;79.42
82379;BME280;72008;48.140;11.614;2024-02-23T05:10:40;93739.69;;;7.03;80.58
82379;BME280;72008;48.140;11.614;2024-02-23T05:11:40;93732.41;;;7.07;82.03
82379;BME280;72008;48.140;11.614;2024-02-23T05:12:40;93735.88;;;7.31;84.62
82379;BME280;72008;48.140;11.614;2024-02-23T05:13:41;93743.00;;;7.39;83.19
82379;BME280;72008;48.140;11.614;2024-02-23T05:14:41;93736.47;;;7.20;79.72
82379;BME280;72008;48.140;11.614;2024-02-23T05:15:42;93729.47;;;7.19;80.90
82379;BME280;72008;48.140;11.614;2024-02-23T05:16:42;93733.28;;;7.15;81.98
82379;BME280;72008;48.140;11.614;2024-02-23T05:17:42;93733.03;;;7.23;83.64
82379;BME280;72008;48.140;11.614;2024-02-23T05:18:43;93741.91;;;7.43;86.69
82379;BME280;72008;48.140;11.614;2024-02-23T05:19:44;93742.53;;;7.60;84.01
82379;BME280;72008;48.140;11.614;2024-02-23T05:20:44;93743.69;;;7.59;82.62
82379;BME280;72008;48.140;11.614;2024-02-23T05:21:44;93743.34;;;7.60;83.27
82379;BME280;72008;48.140;11.614;2024-02-23T05:22:45;93745.63;;;7.58;82.70